createdAt,value
2017-12-12T00:00:40.222Z,88.38
2017-12-12T00:01:50.337Z,88.38
2017-12-12T00:03:00.460Z,88.29
2017-12-12T00:04:10.380Z,88.19
2017-12-12T00:05:21.073Z,88.19
2017-12-12T00:06:31.155Z,88.09
2017-12-12T00:07:41.231Z,88.29
2017-12-12T00:08:51.298Z,88.13
2017-12-12T00:10:00.844Z,88.52
2017-12-12T00:11:10.929Z,87.95
2017-12-12T00:12:21.061Z,88.57
2017-12-12T00:13:30.876Z,88.52
2017-12-12T00:14:40.966Z,88.23
2017-12-12T00:15:51.035Z,88.29
2017-12-12T00:17:00.839Z,88.57
2017-12-12T00:18:10.393Z,88.48
2017-12-12T00:19:20.343Z,88.52
2017-12-12T00:20:30.450Z,88.52
2017-12-12T00:21:40.077Z,88.52
2017-12-12T00:22:50.138Z,88.52
2017-12-12T00:23:59.969Z,88.33
2017-12-12T00:25:10.091Z,88.43
2017-12-12T00:26:20.164Z,88.43
2017-12-12T00:27:29.967Z,88.13
2017-12-12T00:28:39.515Z,87.95
2017-12-12T00:29:49.310Z,87.95
2017-12-12T00:30:59.112Z,88.33
2017-12-12T00:32:09.275Z,88.33
2017-12-12T00:33:18.810Z,88.33
2017-12-12T00:34:28.989Z,88.43
2017-12-12T00:35:38.838Z,88.13
2017-12-12T00:36:48.925Z,88.33
2017-12-12T00:37:58.463Z,88.33
2017-12-12T00:39:09.124Z,88.33
2017-12-12T00:40:19.311Z,88.33
2017-12-12T00:41:30.171Z,88.13
2017-12-12T00:42:40.048Z,88.52
2017-12-12T00:43:50.258Z,88.43
2017-12-12T00:45:01.076Z,88.62
2017-12-12T00:46:10.899Z,88.71
2017-12-12T00:47:21.935Z,88.62
2017-12-12T00:48:31.806Z,88.52
2017-12-12T00:49:42.424Z,88.43
2017-12-12T00:50:52.582Z,88.33
2017-12-12T00:52:02.659Z,88.33
2017-12-12T00:53:12.809Z,88.33
2017-12-12T00:54:22.455Z,88.43
2017-12-12T00:55:32.250Z,88.62
2017-12-12T00:56:42.329Z,88.33
2017-12-12T00:57:52.401Z,88.43
2017-12-12T00:59:02.490Z,88.43
2017-12-12T01:00:12.085Z,88.52
2017-12-12T01:01:21.890Z,88.43
2017-12-12T01:02:31.707Z,88.43
2017-12-12T01:03:41.792Z,88.43
2017-12-12T01:04:51.876Z,88.43
2017-12-12T01:06:01.683Z,88.43
2017-12-12T01:07:11.858Z,88.43
2017-12-12T01:08:21.713Z,88.62
2017-12-12T01:09:31.839Z,88.33
2017-12-12T01:10:41.906Z,88.43
2017-12-12T01:11:52.020Z,88.62
2017-12-12T01:13:02.064Z,88.62
2017-12-12T01:14:11.584Z,88.81
2017-12-12T01:15:21.659Z,88.71
2017-12-12T01:16:31.193Z,88.81
2017-12-12T01:17:40.737Z,88.62
2017-12-12T01:18:50.548Z,88.71
2017-12-12T01:20:00.700Z,88.76
2017-12-12T01:21:10.761Z,88.81
2017-12-12T01:22:20.292Z,88.43
2017-12-12T01:23:30.429Z,88.19
2017-12-12T01:24:40.488Z,88.43
2017-12-12T01:25:50.537Z,88.43
2017-12-12T01:27:00.600Z,88.43
2017-12-12T01:28:10.672Z,88.13
2017-12-12T01:29:20.481Z,88.04
2017-12-12T01:30:30.531Z,88.43
2017-12-12T01:31:40.345Z,88.52
2017-12-12T01:32:50.414Z,88.43
2017-12-12T01:34:00.476Z,88.43
2017-12-12T01:35:10.522Z,88.13
2017-12-12T01:36:20.595Z,88.13
2017-12-12T01:37:30.410Z,88.04
2017-12-12T01:38:40.201Z,88.04
2017-12-12T01:39:50.003Z,88.13
2017-12-12T01:40:59.575Z,88.43
2017-12-12T01:42:09.632Z,88.33
2017-12-12T01:43:19.475Z,87.95
2017-12-12T01:44:29.020Z,88.33
2017-12-12T01:45:39.083Z,87.95
2017-12-12T01:46:48.618Z,87.95
2017-12-12T01:47:58.682Z,88.04
2017-12-12T01:49:08.743Z,88.33
2017-12-12T01:50:18.799Z,88.33
2017-12-12T01:51:28.861Z,88.13
2017-12-12T01:52:38.924Z,88.33
2017-12-12T01:53:48.729Z,88.04
2017-12-12T01:54:58.806Z,88.47
2017-12-12T01:56:08.854Z,88.33
2017-12-12T01:57:18.901Z,88.33
2017-12-12T01:58:28.688Z,88.04
2017-12-12T01:59:38.746Z,88.13
2017-12-12T02:00:48.810Z,88.18
2017-12-12T02:01:58.608Z,88.76
2017-12-12T02:03:08.399Z,88.18
2017-12-12T02:04:18.471Z,88.33
2017-12-12T02:05:28.527Z,87.99
2017-12-12T02:06:38.348Z,88.37
2017-12-12T02:07:48.407Z,88.76
2017-12-12T02:08:58.482Z,88.04
2017-12-12T02:10:08.282Z,88.13
2017-12-12T02:11:18.130Z,87.99
2017-12-12T02:12:29.507Z,88.37
2017-12-12T02:13:39.553Z,88.47
2017-12-12T02:14:49.792Z,88.18
2017-12-12T02:15:59.607Z,88.18
2017-12-12T02:17:09.671Z,88.37
2017-12-12T02:18:19.471Z,88.09
2017-12-12T02:19:29.523Z,88.37
2017-12-12T02:20:39.592Z,88.28
2017-12-12T02:21:49.392Z,88.47
2017-12-12T02:22:59.239Z,88.37
2017-12-12T02:24:08.757Z,88.37
2017-12-12T02:25:18.818Z,88.37
2017-12-12T02:26:28.625Z,88.37
2017-12-12T02:27:38.691Z,88.37
2017-12-12T02:28:48.813Z,88.28
2017-12-12T02:29:58.359Z,88.32
2017-12-12T02:31:08.151Z,88.32
2017-12-12T02:32:17.682Z,88.47
2017-12-12T02:33:27.545Z,88.18
2017-12-12T02:34:38.056Z,88.42
2017-12-12T02:35:47.410Z,88.28
2017-12-12T02:36:57.199Z,88.37
2017-12-12T02:38:06.997Z,88.37
2017-12-12T02:39:16.792Z,88.47
2017-12-12T02:40:26.867Z,88.28
2017-12-12T02:41:37.697Z,88.28
2017-12-12T02:42:47.498Z,88.47
2017-12-12T02:43:57.573Z,88.37
2017-12-12T02:45:07.690Z,88.28
2017-12-12T02:46:17.758Z,88.28
2017-12-12T02:47:27.289Z,88.47
2017-12-12T02:48:37.340Z,88.18
2017-12-12T02:49:47.155Z,88.18
2017-12-12T02:50:57.219Z,88.37
2017-12-12T02:52:08.642Z,88.09
2017-12-12T02:53:19.543Z,88.18
2017-12-12T02:54:29.616Z,88.18
2017-12-12T02:55:39.692Z,87.99
2017-12-12T02:56:49.748Z,88.13
2017-12-12T02:57:59.081Z,87.95
2017-12-12T02:59:09.144Z,88.71
2017-12-12T03:00:19.203Z,88.33
2017-12-12T03:01:29.256Z,88.52
2017-12-12T03:02:39.319Z,87.95
2017-12-12T03:34:10.983Z,83.54
2017-12-12T03:35:20.763Z,84.4
2017-12-12T03:36:30.902Z,85.16
2017-12-12T03:37:40.429Z,86.3
2017-12-12T03:38:50.978Z,86.88
2017-12-12T03:40:00.769Z,87.45
2017-12-12T03:41:10.571Z,87.54
2017-12-12T03:42:20.358Z,87.93
2017-12-12T03:43:29.885Z,88.12
2017-12-12T03:44:39.671Z,88.07
2017-12-12T03:45:49.395Z,88.35
2017-12-12T03:46:59.195Z,88.35
2017-12-12T03:48:09.256Z,88.35
2017-12-12T03:49:19.311Z,88.68
2017-12-12T03:50:29.371Z,87.82
2017-12-12T03:51:39.422Z,88.2
2017-12-12T03:52:49.204Z,88.3
2017-12-12T03:53:59.256Z,87.92
2017-12-12T03:55:09.052Z,87.96
2017-12-12T03:56:19.103Z,88.01
2017-12-12T03:57:28.891Z,87.87
2017-12-12T03:58:38.946Z,88.34
2017-12-12T03:59:49.061Z,87.96
2017-12-12T04:00:59.123Z,87.58
2017-12-12T04:02:09.175Z,87.87
2017-12-12T04:03:20.590Z,87.58
2017-12-12T04:04:30.662Z,87.68
2017-12-12T04:05:40.219Z,87.68
2017-12-12T04:06:50.017Z,87.68
2017-12-12T04:08:00.076Z,87.68
2017-12-12T04:09:09.874Z,87.68
2017-12-12T04:10:19.410Z,87.96
2017-12-12T04:11:29.251Z,87.29
2017-12-12T04:12:39.306Z,87.39
2017-12-12T04:13:49.353Z,87.39
2017-12-12T04:14:59.426Z,87.87
2017-12-12T04:16:09.474Z,87.29
2017-12-12T04:17:19.529Z,87.58
2017-12-12T04:18:29.334Z,87.39
2017-12-12T04:19:39.407Z,87.77
2017-12-12T04:20:49.203Z,87.39
2017-12-12T04:21:58.732Z,87.77
2017-12-12T04:23:08.525Z,87.29
2017-12-12T04:24:18.318Z,87.58
2017-12-12T04:25:28.371Z,87.29
2017-12-12T04:26:38.170Z,87.77
2017-12-12T04:27:48.221Z,87.39
2017-12-12T04:28:58.079Z,87.77
2017-12-12T04:30:08.161Z,87.1
2017-12-12T04:31:18.221Z,87.2
2017-12-12T04:32:28.026Z,87.68
2017-12-12T04:33:38.071Z,87.1
2017-12-12T04:34:47.351Z,87.2
2017-12-12T04:35:57.161Z,87.1
2017-12-12T04:37:07.217Z,87.1
2017-12-12T04:38:17.013Z,87.2
2017-12-12T04:39:26.820Z,87.01
2017-12-12T04:40:36.677Z,87.2
2017-12-12T04:41:46.478Z,87.1
2017-12-12T04:42:56.269Z,87.48
2017-12-12T04:44:06.382Z,87.01
2017-12-12T04:45:16.187Z,86.91
2017-12-12T04:46:26.021Z,87.2
2017-12-12T04:47:36.088Z,86.96
2017-12-12T04:48:46.147Z,86.87
2017-12-12T04:49:55.679Z,86.87
2017-12-12T04:51:05.762Z,87.25
2017-12-12T04:52:15.878Z,87.25
2017-12-12T04:53:25.951Z,87.06
2017-12-12T04:54:35.241Z,87.44
2017-12-12T04:55:45.309Z,87.44
2017-12-12T04:56:55.119Z,87.06
2017-12-12T04:58:05.232Z,87.59
2017-12-12T04:59:15.284Z,87.68
2017-12-12T05:00:25.075Z,87.68
2017-12-12T05:01:35.147Z,87.02
2017-12-12T05:02:45.214Z,87.02
2017-12-12T05:03:55.327Z,87.4
2017-12-12T05:05:05.412Z,87.11
2017-12-12T05:06:14.690Z,87.11
2017-12-12T05:07:24.470Z,87.3
2017-12-12T05:08:34.533Z,87.11
2017-12-12T05:09:44.328Z,87.49
2017-12-12T05:10:54.408Z,87.3
2017-12-12T05:12:04.209Z,87.49
2017-12-12T05:13:14.252Z,86.88
2017-12-12T05:14:24.301Z,87.07
2017-12-12T05:15:34.364Z,86.98
2017-12-12T05:16:44.170Z,86.98
2017-12-12T05:17:54.226Z,87.07
2017-12-12T05:19:04.034Z,86.98
2017-12-12T05:20:14.081Z,86.69
2017-12-12T05:21:23.612Z,87.07
2017-12-12T05:22:33.132Z,87.16
2017-12-12T05:23:43.226Z,86.83
2017-12-12T05:24:53.016Z,87.02
2017-12-12T05:26:03.084Z,86.93
2017-12-12T05:27:13.200Z,86.83
2017-12-12T05:28:23.331Z,87.02
2017-12-12T05:29:33.121Z,86.74
2017-12-12T05:30:42.911Z,87.4
2017-12-12T05:31:52.969Z,86.55
2017-12-12T05:33:03.035Z,86.83
2017-12-12T05:34:13.104Z,87.02
2017-12-12T05:35:23.167Z,86.51
2017-12-12T05:36:33.214Z,86.74
2017-12-12T05:37:43.275Z,86.93
2017-12-12T05:38:53.077Z,86.51
2017-12-12T05:40:03.155Z,86.6
2017-12-12T05:41:13.219Z,86.51
2017-12-12T05:42:23.275Z,86.69
2017-12-12T05:43:33.318Z,86.69
2017-12-12T05:44:42.849Z,86.98
2017-12-12T05:45:52.895Z,86.41
2017-12-12T05:47:02.946Z,86.41
2017-12-12T05:48:12.744Z,85.93
2017-12-12T05:49:22.534Z,86.12
2017-12-12T05:50:32.386Z,86.03
2017-12-12T05:51:42.237Z,86.03
2017-12-12T05:52:52.292Z,86.79
2017-12-12T05:54:02.084Z,86.69
2017-12-12T05:55:12.141Z,86.22
2017-12-12T05:56:22.191Z,86.12
2017-12-12T05:57:32.242Z,86.12
2017-12-12T05:58:42.298Z,86.98
2017-12-12T05:59:52.119Z,86.32
2017-12-12T06:01:02.172Z,86.03
2017-12-12T06:02:12.026Z,87.07
2017-12-12T06:03:22.084Z,86.41
2017-12-12T06:04:31.881Z,87.07
2017-12-12T06:05:41.684Z,86.12
2017-12-12T06:06:51.738Z,86.12
2017-12-12T06:08:01.263Z,86.69
2017-12-12T06:09:10.791Z,86.12
2017-12-12T06:10:20.858Z,86.03
2017-12-12T06:11:30.922Z,86.12
2017-12-12T06:12:41.004Z,87.17
2017-12-12T06:13:50.846Z,86.03
2017-12-12T06:15:00.632Z,86.41
2017-12-12T06:16:10.675Z,86.98
2017-12-12T06:17:20.468Z,86.98
2017-12-12T06:18:30.270Z,87.07
2017-12-12T06:19:40.360Z,86.12
2017-12-12T06:20:50.434Z,86.03
2017-12-12T06:22:00.249Z,86.41
2017-12-12T06:23:10.041Z,86.12
2017-12-12T06:24:19.832Z,86.12
2017-12-12T06:25:29.878Z,87.07
2017-12-12T06:26:39.716Z,86.32
2017-12-12T06:27:49.781Z,86.98
2017-12-12T06:28:59.835Z,86.88
2017-12-12T06:30:09.885Z,86.88
2017-12-12T06:31:19.939Z,87.07
2017-12-12T06:32:30.000Z,87.07
2017-12-12T06:33:40.063Z,86.12
2017-12-12T06:34:49.857Z,86.32
2017-12-12T06:35:59.925Z,87.17
2017-12-12T06:37:09.987Z,85.93
2017-12-12T06:38:19.532Z,87.07
2017-12-12T06:39:29.603Z,85.93
2017-12-12T06:40:39.140Z,86.51
2017-12-12T06:41:49.201Z,86.12
2017-12-12T06:42:59.311Z,87.07
2017-12-12T06:44:08.833Z,87.07
2017-12-12T06:45:18.894Z,86.79
2017-12-12T06:46:28.702Z,87.17
2017-12-12T06:47:38.755Z,86.12
2017-12-12T06:48:48.545Z,86.74
2017-12-12T06:49:58.601Z,86.88
2017-12-12T06:51:08.671Z,86.32
2017-12-12T06:52:18.744Z,86.51
2017-12-12T06:53:28.265Z,86.51
2017-12-12T06:54:38.053Z,86.51
2017-12-12T06:55:48.124Z,86.41
2017-12-12T06:56:57.910Z,86.6
2017-12-12T06:58:07.707Z,86.41
2017-12-12T06:59:17.235Z,86.12
2017-12-12T07:00:26.784Z,86.51
2017-12-12T07:01:36.834Z,86.12
2017-12-12T07:02:46.932Z,86.6
2017-12-12T07:03:56.996Z,86.6
2017-12-12T07:05:07.921Z,86.88
2017-12-12T07:06:17.736Z,86.88
2017-12-12T07:07:28.831Z,86.22
2017-12-12T07:08:39.727Z,86.51
2017-12-12T07:09:49.786Z,86.32
2017-12-12T07:10:59.832Z,86.51
2017-12-12T07:12:09.619Z,86.51
2017-12-12T07:13:19.168Z,86.65
2017-12-12T07:14:28.951Z,86.32
2017-12-12T07:15:38.775Z,86.26
2017-12-12T07:16:48.840Z,86.07
2017-12-12T07:17:58.888Z,86.55
2017-12-12T07:19:08.982Z,86.36
2017-12-12T07:20:19.041Z,86.55
2017-12-12T07:21:28.563Z,86.26
2017-12-12T07:22:38.359Z,86.36
2017-12-12T07:23:47.907Z,86.55
2017-12-12T07:24:58.001Z,86.16
2017-12-12T07:26:08.065Z,86.26
2017-12-12T07:27:17.852Z,86.51
2017-12-12T07:28:27.647Z,86.32
2017-12-12T07:29:37.451Z,86.32
2017-12-12T07:30:47.507Z,86.32
2017-12-12T07:31:57.315Z,86.12
2017-12-12T07:33:07.154Z,86.12
2017-12-12T07:34:16.946Z,86.26
2017-12-12T07:35:26.745Z,85.93
2017-12-12T07:36:36.981Z,85.97
2017-12-12T07:37:47.057Z,86.36
2017-12-12T07:38:56.842Z,86.26
2017-12-12T07:40:06.981Z,86.22
2017-12-12T07:41:16.877Z,85.88
2017-12-12T07:42:26.680Z,86.26
2017-12-12T07:43:36.725Z,86.26
2017-12-12T07:44:46.774Z,86.12
2017-12-12T07:45:56.359Z,86.45
2017-12-12T07:47:06.428Z,85.97
2017-12-12T07:48:16.478Z,86.45
2017-12-12T07:49:26.266Z,86.12
2017-12-12T07:50:36.065Z,86.36
2017-12-12T07:51:45.928Z,86.36
2017-12-12T07:52:55.725Z,86.36
2017-12-12T07:54:05.533Z,86.16
2017-12-12T07:55:15.333Z,86.45
2017-12-12T07:56:25.152Z,86.45
2017-12-12T07:57:34.958Z,85.88
2017-12-12T07:58:44.501Z,86.26
2017-12-12T07:59:54.612Z,86.26
2017-12-12T08:01:04.431Z,86.45
2017-12-12T08:02:13.990Z,86.45
2017-12-12T08:03:23.804Z,85.69
2017-12-12T08:04:33.604Z,85.78
2017-12-12T08:05:44.721Z,85.78
2017-12-12T08:06:54.792Z,86.55
2017-12-12T08:08:04.602Z,86.45
2017-12-12T08:09:14.460Z,86.36
2017-12-12T08:10:24.275Z,85.88
2017-12-12T08:11:34.380Z,86.26
2017-12-12T08:12:44.233Z,85.6
2017-12-12T08:13:53.774Z,86.07
2017-12-12T08:15:03.630Z,86.07
2017-12-12T08:16:13.471Z,86.07
2017-12-12T08:17:23.522Z,86.45
2017-12-12T08:18:33.308Z,85.6
2017-12-12T08:19:43.183Z,86.07
2017-12-12T08:20:53.320Z,86.36
2017-12-12T08:22:03.372Z,85.97
2017-12-12T08:23:13.996Z,85.88
2017-12-12T08:24:24.051Z,86.16
2017-12-12T08:25:34.097Z,86.11
2017-12-12T08:26:43.889Z,86.21
2017-12-12T08:27:53.943Z,86.21
2017-12-12T08:29:03.791Z,86.02
2017-12-12T08:30:13.594Z,86.3
2017-12-12T08:31:23.653Z,86.49
2017-12-12T08:32:33.721Z,86.49
2017-12-12T08:33:43.520Z,86.21
2017-12-12T08:34:53.613Z,86.21
2017-12-12T08:36:03.679Z,86.02
2017-12-12T08:37:13.757Z,86.02
2017-12-12T08:38:23.615Z,85.93
2017-12-12T08:39:33.687Z,86.21
2017-12-12T08:40:43.756Z,86.3
2017-12-12T08:41:53.638Z,85.73
2017-12-12T08:43:03.701Z,86.4
2017-12-12T08:44:13.827Z,86.3
2017-12-12T08:45:23.624Z,85.73
2017-12-12T08:46:37.412Z,86.11
2017-12-12T08:47:56.540Z,85.73
2017-12-12T08:49:09.333Z,85.93
2017-12-12T08:50:19.117Z,86.02
2017-12-12T08:51:29.174Z,85.83
2017-12-12T08:52:39.251Z,85.93
2017-12-12T08:53:49.304Z,86.02
2017-12-12T08:54:59.388Z,86.02
2017-12-12T08:56:09.213Z,86.11
2017-12-12T08:57:19.351Z,85.93
2017-12-12T08:58:29.369Z,85.93
2017-12-12T08:59:39.165Z,85.83
2017-12-12T09:00:49.246Z,85.64
2017-12-12T09:01:59.068Z,85.83
2017-12-12T09:03:08.615Z,85.73
2017-12-12T09:04:18.733Z,85.73
2017-12-12T09:05:28.569Z,85.93
2017-12-12T09:06:38.624Z,86.11
2017-12-12T09:07:48.428Z,85.83
2017-12-12T09:08:58.234Z,86.21
2017-12-12T09:10:08.306Z,86.02
2017-12-12T09:11:18.360Z,86.02
2017-12-12T09:12:28.180Z,86.25
2017-12-12T09:13:37.712Z,86.25
2017-12-12T09:14:47.786Z,86.06
2017-12-12T09:15:58.781Z,86.06
2017-12-12T09:17:08.859Z,86.16
2017-12-12T09:18:18.682Z,86.35
2017-12-12T09:19:28.778Z,85.77
2017-12-12T09:20:38.308Z,86.16
2017-12-12T09:21:48.614Z,85.77
2017-12-12T09:22:58.687Z,85.77
2017-12-12T09:24:08.732Z,85.77
2017-12-12T09:25:18.528Z,85.77
2017-12-12T09:26:28.596Z,85.68
2017-12-12T09:27:38.417Z,85.97
2017-12-12T09:28:49.203Z,85.97
2017-12-12T09:29:59.342Z,85.87
2017-12-12T09:31:09.428Z,85.68
2017-12-12T09:32:19.240Z,85.91
2017-12-12T09:33:29.308Z,85.82
2017-12-12T09:34:39.386Z,85.91
2017-12-12T09:35:49.464Z,85.91
2017-12-12T09:36:59.631Z,85.91
2017-12-12T09:38:09.937Z,85.72
2017-12-12T09:39:19.731Z,86.1
2017-12-12T09:40:29.823Z,86.01
2017-12-12T09:41:39.610Z,85.82
2017-12-12T09:42:49.655Z,85.53
2017-12-12T09:43:59.722Z,85.82
2017-12-12T09:45:09.856Z,86.01
2017-12-12T09:46:19.975Z,85.96
2017-12-12T09:47:30.050Z,85.96
2017-12-12T09:48:40.111Z,85.67
2017-12-12T09:49:49.917Z,85.29
2017-12-12T09:50:59.962Z,85.19
2017-12-12T09:52:10.144Z,85.38
2017-12-12T09:53:20.270Z,85.29
2017-12-12T09:54:30.091Z,85.1
2017-12-12T09:55:39.940Z,85.77
2017-12-12T09:56:50.058Z,85.38
2017-12-12T09:58:00.215Z,85.62
2017-12-12T09:59:10.314Z,85.05
2017-12-12T10:00:20.390Z,84.85
2017-12-12T10:01:30.204Z,84.66
2017-12-12T10:02:40.280Z,84.47
2017-12-12T10:03:50.134Z,84.32
2017-12-12T10:05:00.199Z,84.03
2017-12-12T10:06:10.263Z,84.03
2017-12-12T10:07:20.341Z,84.32
2017-12-12T10:08:30.462Z,84.52
2017-12-12T10:09:40.599Z,84.99
2017-12-12T10:10:50.411Z,84.8
2017-12-12T10:12:00.492Z,84.52
2017-12-12T10:13:10.292Z,84.75
2017-12-12T10:14:19.827Z,84.65
2017-12-12T10:15:29.681Z,85.13
2017-12-12T10:16:39.749Z,84.94
2017-12-12T10:17:49.551Z,85.22
2017-12-12T10:18:59.649Z,85.13
2017-12-12T10:20:09.751Z,85.32
2017-12-12T10:21:19.878Z,85.22
2017-12-12T10:22:29.682Z,85.41
2017-12-12T10:23:39.750Z,85.41
2017-12-12T10:24:49.824Z,85.18
2017-12-12T10:25:59.638Z,85.38
2017-12-12T10:27:09.707Z,85.57
2017-12-12T10:28:19.519Z,85.57
2017-12-12T10:29:29.608Z,85.18
2017-12-12T10:30:39.672Z,85.75
2017-12-12T10:31:49.496Z,85.75
2017-12-12T10:32:59.646Z,85.38
2017-12-12T10:34:10.280Z,85.38
2017-12-12T10:35:20.096Z,85.18
2017-12-12T10:36:30.155Z,85.09
2017-12-12T10:37:40.226Z,85.41
2017-12-12T10:38:50.051Z,85.41
2017-12-12T10:40:00.184Z,85.85
2017-12-12T10:41:09.975Z,86.14
2017-12-12T10:42:20.066Z,85.94
2017-12-12T10:43:30.155Z,86.04
2017-12-12T10:44:40.246Z,86.23
2017-12-12T10:45:50.309Z,85.94
2017-12-12T10:47:00.117Z,86.33
2017-12-12T10:48:09.923Z,86.33
2017-12-12T10:49:20.002Z,86.33
2017-12-12T10:50:29.813Z,86.71
2017-12-12T10:51:40.130Z,86.33
2017-12-12T10:52:49.932Z,86.19
2017-12-12T10:54:00.008Z,87.15
2017-12-12T10:55:10.095Z,86.38
2017-12-12T10:56:19.967Z,86.67
2017-12-12T10:57:29.782Z,86.57
2017-12-12T10:58:39.856Z,86.38
2017-12-12T10:59:49.668Z,86.04
2017-12-12T11:00:59.760Z,86.61
2017-12-12T11:02:09.824Z,86.23
2017-12-12T11:03:19.880Z,86.04
2017-12-12T11:04:29.707Z,85.94
2017-12-12T11:05:40.670Z,86.43
2017-12-12T11:06:50.471Z,86.23
2017-12-12T11:08:00.342Z,86.23
2017-12-12T11:09:10.422Z,86.52
2017-12-12T11:10:20.496Z,85.94
2017-12-12T11:11:30.565Z,86.38
2017-12-12T11:12:40.624Z,86.29
2017-12-12T11:13:50.690Z,86.57
2017-12-12T11:15:00.785Z,86.57
2017-12-12T11:16:10.876Z,86.57
2017-12-12T11:17:20.443Z,86.67
2017-12-12T11:18:30.266Z,86.29
2017-12-12T11:19:40.409Z,86.57
2017-12-12T11:20:50.217Z,86.38
2017-12-12T11:22:00.341Z,86.57
2017-12-12T11:23:10.163Z,86
2017-12-12T11:24:19.973Z,86.29
2017-12-12T11:25:30.048Z,86.19
2017-12-12T11:26:40.156Z,86.19
2017-12-12T11:27:49.968Z,86.1
2017-12-12T11:29:00.029Z,85.9
2017-12-12T11:30:10.120Z,86.29
2017-12-12T11:31:19.995Z,86.1
2017-12-12T11:32:29.568Z,85.62
2017-12-12T11:33:39.365Z,85.66
2017-12-12T11:34:49.451Z,85.94
2017-12-12T11:35:59.533Z,86.04
2017-12-12T11:37:09.621Z,85.47
2017-12-12T11:38:19.696Z,85.24
2017-12-12T11:39:29.772Z,85.38
2017-12-12T11:40:39.611Z,85.18
2017-12-12T11:41:49.700Z,85.18
2017-12-12T11:42:59.855Z,85.38
2017-12-12T11:44:09.639Z,85.75
2017-12-12T11:45:19.698Z,85.85
2017-12-12T11:46:29.772Z,86.1
2017-12-12T11:47:39.603Z,86
2017-12-12T11:48:49.424Z,86
2017-12-12T11:50:00.198Z,86
2017-12-12T11:51:10.542Z,86.29
2017-12-12T11:52:20.639Z,86.29
2017-12-12T11:53:30.452Z,86.29
2017-12-12T11:54:40.535Z,86.47
2017-12-12T11:55:50.330Z,85.81
2017-12-12T11:57:00.161Z,85.81
2017-12-12T11:58:09.960Z,85.9
2017-12-12T11:59:19.761Z,86.19
2017-12-12T12:00:29.883Z,86
2017-12-12T12:01:39.938Z,86.53
2017-12-12T12:02:50.018Z,86.29
2017-12-12T12:04:00.093Z,86.43
2017-12-12T12:05:09.906Z,85.81
2017-12-12T12:06:19.197Z,85.81
2017-12-12T12:07:28.743Z,85.62
2017-12-12T12:08:38.280Z,85.52
2017-12-12T12:09:48.080Z,85.42
2017-12-12T12:10:57.880Z,85.9
2017-12-12T12:12:07.936Z,85.9
2017-12-12T12:13:17.492Z,85.9
2017-12-12T12:14:27.569Z,85.71
2017-12-12T12:15:37.107Z,85.42
2017-12-12T12:16:47.197Z,85.71
2017-12-12T12:17:57.264Z,86
2017-12-12T12:19:07.102Z,85.9
2017-12-12T12:20:17.182Z,85.96
2017-12-12T12:21:27.256Z,85.71
2017-12-12T12:22:37.393Z,85.42
2017-12-12T12:23:47.482Z,85.42
2017-12-12T12:24:57.595Z,86.1
2017-12-12T12:26:07.666Z,85.58
2017-12-12T12:27:17.787Z,86.05
2017-12-12T12:28:27.910Z,86.1
2017-12-12T12:29:37.972Z,85.9
2017-12-12T12:30:48.078Z,85.9
2017-12-12T12:31:58.136Z,86
2017-12-12T12:33:08.212Z,85.24
2017-12-12T12:34:17.764Z,85.42
2017-12-12T12:35:27.562Z,85.33
2017-12-12T12:36:37.612Z,85.9
2017-12-12T12:37:47.403Z,85.58
2017-12-12T12:38:57.461Z,86.15
2017-12-12T12:40:07.312Z,85.96
2017-12-12T12:41:17.125Z,85.77
2017-12-12T12:42:27.197Z,85.86
2017-12-12T12:43:37.273Z,86.15
2017-12-12T12:44:46.826Z,86.05
2017-12-12T12:45:56.947Z,86.43
2017-12-12T12:47:07.031Z,86.15
2017-12-12T12:48:17.089Z,86.15
2017-12-12T12:49:27.158Z,86.43
2017-12-12T12:50:38.418Z,85.86
2017-12-12T12:51:48.296Z,85.86
2017-12-12T12:52:58.358Z,85.77
2017-12-12T12:54:08.176Z,85.67
2017-12-12T12:55:18.249Z,85.96
2017-12-12T12:56:28.058Z,85.96
2017-12-12T12:57:37.849Z,86.05
2017-12-12T12:58:47.405Z,85.86
2017-12-12T12:59:57.204Z,85.48
2017-12-12T13:01:07.284Z,85.19
2017-12-12T13:02:17.103Z,85.38
2017-12-12T13:03:26.184Z,85.38
2017-12-12T13:04:36.255Z,85.29
2017-12-12T13:05:46.301Z,85.38
2017-12-12T13:06:56.364Z,85.19
2017-12-12T13:08:06.434Z,85.29
2017-12-12T13:09:16.575Z,85.38
2017-12-12T13:10:26.660Z,85.82
2017-12-12T13:11:36.742Z,85.53
2017-12-12T13:12:46.828Z,85.53
2017-12-12T13:13:56.629Z,85.63
2017-12-12T13:15:06.707Z,85.34
2017-12-12T13:16:16.519Z,84.96
2017-12-12T13:17:26.599Z,85.1
2017-12-12T13:18:36.640Z,85.38
2017-12-12T13:19:46.176Z,85.38
2017-12-12T13:20:56.017Z,85.48
2017-12-12T13:22:05.806Z,85.1
2017-12-12T13:23:15.609Z,85
2017-12-12T13:24:25.691Z,85.44
2017-12-12T13:25:35.246Z,86.01
2017-12-12T13:26:45.079Z,85.82
2017-12-12T13:27:54.890Z,85.82
2017-12-12T13:29:04.968Z,85.63
2017-12-12T13:30:15.042Z,85.53
2017-12-12T13:31:25.115Z,85.44
2017-12-12T13:32:35.023Z,85.82
2017-12-12T13:33:45.095Z,85.77
2017-12-12T13:34:54.870Z,85.58
2017-12-12T13:36:04.957Z,85.77
2017-12-12T13:37:15.052Z,85.97
2017-12-12T13:38:25.112Z,85.87
2017-12-12T13:39:35.179Z,85.77
2017-12-12T13:40:45.244Z,86.11
2017-12-12T13:41:55.313Z,86.21
2017-12-12T13:43:05.127Z,86.02
2017-12-12T13:44:14.959Z,86.02
2017-12-12T13:45:25.028Z,86.11
2017-12-12T13:46:34.832Z,85.73
2017-12-12T13:47:44.405Z,85.83
2017-12-12T13:48:54.467Z,85.83
2017-12-12T13:50:05.643Z,85.83
2017-12-12T13:51:15.723Z,85.93
2017-12-12T13:52:25.802Z,85.78
2017-12-12T13:53:35.860Z,85.6
2017-12-12T13:54:45.685Z,86.26
2017-12-12T13:55:55.282Z,85.88
2017-12-12T13:57:05.937Z,85.69
2017-12-12T13:58:16.018Z,85.78
2017-12-12T13:59:26.137Z,85.69
2017-12-12T14:00:35.926Z,85.78
2017-12-12T14:01:46.049Z,85.88
2017-12-12T14:02:55.877Z,85.5
2017-12-12T14:04:05.694Z,85.88
2017-12-12T14:05:15.473Z,85.41
2017-12-12T14:06:25.012Z,85.21
2017-12-12T14:07:34.598Z,85.12
2017-12-12T14:08:44.728Z,85.31
2017-12-12T14:09:54.789Z,85.02
2017-12-12T14:11:04.586Z,85.02
2017-12-12T14:12:14.771Z,85.21
2017-12-12T14:13:24.887Z,85.41
2017-12-12T14:14:34.948Z,85.46
2017-12-12T14:15:45.025Z,85.21
2017-12-12T14:16:54.829Z,85.78
2017-12-12T14:18:04.640Z,85.64
2017-12-12T14:19:14.751Z,85.17
2017-12-12T14:20:24.869Z,85.36
2017-12-12T14:21:34.971Z,85.84
2017-12-12T14:22:44.499Z,85.55
2017-12-12T14:23:54.020Z,85.74
2017-12-12T14:25:03.858Z,85.93
2017-12-12T14:26:13.473Z,85.55
2017-12-12T14:27:23.282Z,85.55
2017-12-12T14:28:33.351Z,85.64
2017-12-12T14:29:43.424Z,85.93
2017-12-12T14:30:53.876Z,85.64
2017-12-12T14:32:05.096Z,85.74
2017-12-12T14:33:15.168Z,85.55
2017-12-12T14:34:25.024Z,85.6
2017-12-12T14:35:35.317Z,85.6
2017-12-12T14:36:45.450Z,85.89
2017-12-12T14:37:55.715Z,85.7
2017-12-12T14:39:05.792Z,85.7
2017-12-12T14:40:15.597Z,85.51
2017-12-12T14:41:25.666Z,85.8
2017-12-12T14:42:35.802Z,85.64
2017-12-12T14:43:45.620Z,85.84
2017-12-12T14:44:55.690Z,85.7
2017-12-12T14:46:05.234Z,85.17
2017-12-12T14:47:15.290Z,85.55
2017-12-12T14:48:25.099Z,85.27
2017-12-12T14:49:34.909Z,85.8
2017-12-12T14:50:45.055Z,85.6
2017-12-12T14:51:54.857Z,85.8
2017-12-12T14:53:04.922Z,85.7
2017-12-12T14:54:14.998Z,85.7
2017-12-12T14:55:25.057Z,85.51
2017-12-12T14:56:34.926Z,85.51
2017-12-12T14:57:45.101Z,85.51
2017-12-12T14:58:55.161Z,85.51
2017-12-12T15:00:05.079Z,85.7
2017-12-12T15:01:15.137Z,85.6
2017-12-12T15:02:25.201Z,85.6
2017-12-12T15:03:34.731Z,85.51
2017-12-12T15:04:44.539Z,85.6
2017-12-12T15:05:54.331Z,85.51
2017-12-12T15:07:04.442Z,85.51
2017-12-12T15:08:14.580Z,85.7
2017-12-12T15:09:24.649Z,85.6
2017-12-12T15:10:34.717Z,85.6
2017-12-12T15:11:44.603Z,85.89
2017-12-12T15:12:54.689Z,85.51
2017-12-12T15:14:04.780Z,85.51
2017-12-12T15:15:15.889Z,85.99
2017-12-12T15:16:25.680Z,85.7
2017-12-12T15:17:35.758Z,85.89
2017-12-12T15:18:45.822Z,85.8
2017-12-12T15:19:55.896Z,85.8
2017-12-12T15:21:07.306Z,85.6
2017-12-12T15:22:17.102Z,85.89
2017-12-12T15:23:27.275Z,85.8
2017-12-12T15:24:37.095Z,85.7
2017-12-12T15:25:46.927Z,85.51
2017-12-12T15:26:56.734Z,85.51
2017-12-12T15:28:06.826Z,85.7
2017-12-12T15:29:16.632Z,85.28
2017-12-12T15:30:26.185Z,85.37
2017-12-12T15:31:36.265Z,85.75
2017-12-12T15:32:46.047Z,85.66
2017-12-12T15:33:56.116Z,85.28
2017-12-12T15:35:06.305Z,85.37